sensor_id;sensor_type;location;lat;lon;timestamp;P1;durP1;ratioP1;P2;durP2;ratioP2
69246;SDS011;56358;56.328;43.992;2022-07-29T00:00:32;3.42;;;2.00;;
69246;SDS011;56358;56.328;43.992;2022-07-29T00:02:33;4.43;;;2.30;;
69246;SDS011;56358;56.328;43.992;2022-07-29T00:04:34;5.50;;;2.33;;
69246;SDS011;56358;56.328;43.992;2022-07-29T00:06:35;4.32;;;1.90;;
69246;SDS011;56358;56.328;43.992;2022-07-29T00:08:36;3.35;;;2.05;;
69246;SDS011;56358;56.328;43.992;2022-07-29T00:10:37;3.40;;;2.00;;
69246;SDS011;56358;56.328;43.992;2022-07-29T00:12:41;7.95;;;2.70;;
69246;SDS011;56358;56.328;43.992;2022-07-29T00:14:42;5.47;;;2.30;;
69246;SDS011;56358;56.328;43.992;2022-07-29T00:16:42;5.45;;;2.17;;
69246;SDS011;56358;56.328;43.992;2022-07-29T00:18:43;4.85;;;2.10;;
69246;SDS011;56358;56.328;43.992;2022-07-29T00:20:44;5.63;;;2.08;;
69246;SDS011;56358;56.328;43.992;2022-07-29T00:22:44;3.95;;;1.90;;
69246;SDS011;56358;56.328;43.992;2022-07-29T00:24:46;4.00;;;2.38;;
69246;SDS011;56358;56.328;43.992;2022-07-29T00:26:49;4.65;;;2.42;;
69246;SDS011;56358;56.328;43.992;2022-07-29T00:28:50;6.70;;;2.60;;
69246;SDS011;56358;56.328;43.992;2022-07-29T00:30:53;5.97;;;2.55;;
69246;SDS011;56358;56.328;43.992;2022-07-29T00:32:56;5.50;;;2.60;;
69246;SDS011;56358;56.328;43.992;2022-07-29T00:34:57;4.53;;;2.05;;
69246;SDS011;56358;56.328;43.992;2022-07-29T00:37:16;4.55;;;2.30;;
69246;SDS011;56358;56.328;43.992;2022-07-29T00:39:17;5.63;;;2.60;;
69246;SDS011;56358;56.328;43.992;2022-07-29T00:41:17;3.60;;;2.30;;
69246;SDS011;56358;56.328;43.992;2022-07-29T00:43:21;6.55;;;2.40;;
69246;SDS011;56358;56.328;43.992;2022-07-29T00:45:21;7.25;;;2.50;;
69246;SDS011;56358;56.328;43.992;2022-07-29T00:47:22;4.30;;;2.30;;
69246;SDS011;56358;56.328;43.992;2022-07-29T00:49:23;4.75;;;2.28;;
69246;SDS011;56358;56.328;43.992;2022-07-29T00:51:24;7.78;;;2.35;;
69246;SDS011;56358;56.328;43.992;2022-07-29T00:53:29;7.10;;;2.58;;
69246;SDS011;56358;56.328;43.992;2022-07-29T00:55:31;5.28;;;2.38;;
69246;SDS011;56358;56.328;43.992;2022-07-29T00:57:32;4.75;;;2.28;;
69246;SDS011;56358;56.328;43.992;2022-07-29T00:59:34;7.03;;;2.53;;
69246;SDS011;56358;56.328;43.992;2022-07-29T01:01:35;7.15;;;2.60;;
69246;SDS011;56358;56.328;43.992;2022-07-29T01:03:36;3.85;;;2.47;;
69246;SDS011;56358;56.328;43.992;2022-07-29T01:05:36;3.85;;;2.10;;
69246;SDS011;56358;56.328;43.992;2022-07-29T01:07:38;4.57;;;2.38;;
69246;SDS011;56358;56.328;43.992;2022-07-29T01:09:39;3.92;;;2.45;;
69246;SDS011;56358;56.328;43.992;2022-07-29T01:11:42;3.67;;;2.25;;
69246;SDS011;56358;56.328;43.992;2022-07-29T01:13:46;5.43;;;2.67;;
69246;SDS011;56358;56.328;43.992;2022-07-29T01:15:57;4.82;;;2.20;;
69246;SDS011;56358;56.328;43.992;2022-07-29T01:18:09;4.28;;;2.67;;
69246;SDS011;56358;56.328;43.992;2022-07-29T01:21:21;5.50;;;2.63;;
69246;SDS011;56358;56.328;43.992;2022-07-29T01:26:57;6.15;;;2.45;;
69246;SDS011;56358;56.328;43.992;2022-07-29T01:29:30;4.85;;;2.70;;
69246;SDS011;56358;56.328;43.992;2022-07-29T01:33:45;4.80;;;2.70;;
69246;SDS011;56358;56.328;43.992;2022-07-29T01:35:50;6.80;;;2.60;;
69246;SDS011;56358;56.328;43.992;2022-07-29T01:37:59;4.82;;;2.83;;
69246;SDS011;56358;56.328;43.992;2022-07-29T01:40:07;8.07;;;2.70;;
69246;SDS011;56358;56.328;43.992;2022-07-29T01:44:41;5.28;;;2.72;;
69246;SDS011;56358;56.328;43.992;2022-07-29T01:46:56;6.85;;;2.88;;
69246;SDS011;56358;56.328;43.992;2022-07-29T01:49:22;3.75;;;2.47;;
69246;SDS011;56358;56.328;43.992;2022-07-29T01:51:31;4.68;;;2.30;;
69246;SDS011;56358;56.328;43.992;2022-07-29T01:53:38;4.20;;;2.40;;
69246;SDS011;56358;56.328;43.992;2022-07-29T01:55:46;4.97;;;2.35;;
69246;SDS011;56358;56.328;43.992;2022-07-29T01:57:49;5.25;;;2.65;;
69246;SDS011;56358;56.328;43.992;2022-07-29T01:59:51;4.65;;;2.55;;
69246;SDS011;56358;56.328;43.992;2022-07-29T02:01:53;7.47;;;2.60;;
69246;SDS011;56358;56.328;43.992;2022-07-29T02:03:57;5.70;;;2.60;;
69246;SDS011;56358;56.328;43.992;2022-07-29T02:06:02;4.35;;;2.80;;
69246;SDS011;56358;56.328;43.992;2022-07-29T02:08:04;7.13;;;2.65;;
69246;SDS011;56358;56.328;43.992;2022-07-29T02:10:06;7.03;;;2.70;;
69246;SDS011;56358;56.328;43.992;2022-07-29T02:12:09;3.58;;;2.47;;
69246;SDS011;56358;56.328;43.992;2022-07-29T02:14:12;4.97;;;2.60;;
69246;SDS011;56358;56.328;43.992;2022-07-29T02:16:15;5.63;;;2.47;;
69246;SDS011;56358;56.328;43.992;2022-07-29T02:18:20;4.50;;;2.42;;
69246;SDS011;56358;56.328;43.992;2022-07-29T02:20:25;5.30;;;2.63;;
69246;SDS011;56358;56.328;43.992;2022-07-29T02:22:26;4.95;;;2.40;;
69246;SDS011;56358;56.328;43.992;2022-07-29T02:24:29;3.70;;;2.40;;
69246;SDS011;56358;56.328;43.992;2022-07-29T02:26:31;3.60;;;2.40;;
69246;SDS011;56358;56.328;43.992;2022-07-29T02:28:33;8.27;;;2.50;;
69246;SDS011;56358;56.328;43.992;2022-07-29T02:30:38;3.88;;;2.50;;
69246;SDS011;56358;56.328;43.992;2022-07-29T02:32:41;5.22;;;2.80;;
69246;SDS011;56358;56.328;43.992;2022-07-29T02:34:45;4.82;;;2.90;;
69246;SDS011;56358;56.328;43.992;2022-07-29T02:36:48;4.10;;;2.60;;
69246;SDS011;56358;56.328;43.992;2022-07-29T02:38:50;5.13;;;2.55;;
69246;SDS011;56358;56.328;43.992;2022-07-29T02:40:52;6.68;;;2.92;;
69246;SDS011;56358;56.328;43.992;2022-07-29T02:42:55;5.65;;;2.85;;
69246;SDS011;56358;56.328;43.992;2022-07-29T02:44:55;5.85;;;2.53;;
69246;SDS011;56358;56.328;43.992;2022-07-29T02:49:17;6.55;;;2.88;;
69246;SDS011;56358;56.328;43.992;2022-07-29T02:51:28;6.28;;;2.58;;
69246;SDS011;56358;56.328;43.992;2022-07-29T02:53:33;5.43;;;2.95;;
69246;SDS011;56358;56.328;43.992;2022-07-29T02:55:37;6.57;;;2.70;;
69246;SDS011;56358;56.328;43.992;2022-07-29T02:57:43;5.47;;;2.67;;
69246;SDS011;56358;56.328;43.992;2022-07-29T02:59:48;9.00;;;3.00;;
69246;SDS011;56358;56.328;43.992;2022-07-29T03:01:51;4.50;;;2.65;;
69246;SDS011;56358;56.328;43.992;2022-07-29T03:03:54;5.97;;;2.85;;
69246;SDS011;56358;56.328;43.992;2022-07-29T03:05:57;4.60;;;2.70;;
69246;SDS011;56358;56.328;43.992;2022-07-29T03:08:02;7.25;;;2.97;;
69246;SDS011;56358;56.328;43.992;2022-07-29T03:10:07;5.90;;;2.80;;
69246;SDS011;56358;56.328;43.992;2022-07-29T03:12:12;7.53;;;3.13;;
69246;SDS011;56358;56.328;43.992;2022-07-29T03:16:17;5.50;;;3.05;;
69246;SDS011;56358;56.328;43.992;2022-07-29T03:18:23;7.25;;;3.00;;
69246;SDS011;56358;56.328;43.992;2022-07-29T03:20:25;7.88;;;3.20;;
69246;SDS011;56358;56.328;43.992;2022-07-29T03:22:26;8.32;;;3.85;;
69246;SDS011;56358;56.328;43.992;2022-07-29T03:24:31;5.88;;;3.22;;
69246;SDS011;56358;56.328;43.992;2022-07-29T03:26:33;6.40;;;3.08;;
69246;SDS011;56358;56.328;43.992;2022-07-29T03:28:34;7.13;;;3.08;;
69246;SDS011;56358;56.328;43.992;2022-07-29T03:30:35;8.15;;;3.25;;
69246;SDS011;56358;56.328;43.992;2022-07-29T03:32:36;5.38;;;3.10;;
69246;SDS011;56358;56.328;43.992;2022-07-29T03:34:37;5.75;;;3.30;;
69246;SDS011;56358;56.328;43.992;2022-07-29T03:36:38;7.45;;;3.58;;
69246;SDS011;56358;56.328;43.992;2022-07-29T03:38:38;5.75;;;3.40;;
69246;SDS011;56358;56.328;43.992;2022-07-29T03:40:44;5.10;;;3.47;;
69246;SDS011;56358;56.328;43.992;2022-07-29T03:42:49;7.15;;;3.88;;
69246;SDS011;56358;56.328;43.992;2022-07-29T03:44:53;5.80;;;3.40;;
69246;SDS011;56358;56.328;43.992;2022-07-29T03:46:56;5.88;;;2.80;;
69246;SDS011;56358;56.328;43.992;2022-07-29T03:49:02;7.25;;;3.25;;
69246;SDS011;56358;56.328;43.992;2022-07-29T03:51:05;5.85;;;3.40;;
69246;SDS011;56358;56.328;43.992;2022-07-29T03:53:06;4.50;;;3.17;;
69246;SDS011;56358;56.328;43.992;2022-07-29T03:55:08;5.25;;;3.75;;
69246;SDS011;56358;56.328;43.992;2022-07-29T03:57:11;7.80;;;3.58;;
69246;SDS011;56358;56.328;43.992;2022-07-29T03:59:15;7.45;;;3.55;;
69246;SDS011;56358;56.328;43.992;2022-07-29T04:01:17;5.57;;;3.50;;
69246;SDS011;56358;56.328;43.992;2022-07-29T04:03:21;6.18;;;3.33;;
69246;SDS011;56358;56.328;43.992;2022-07-29T04:05:23;7.38;;;3.58;;
69246;SDS011;56358;56.328;43.992;2022-07-29T04:07:23;6.25;;;3.75;;
69246;SDS011;56358;56.328;43.992;2022-07-29T04:09:24;7.35;;;3.53;;
69246;SDS011;56358;56.328;43.992;2022-07-29T04:11:25;6.32;;;3.72;;
69246;SDS011;56358;56.328;43.992;2022-07-29T04:13:25;7.10;;;3.55;;
69246;SDS011;56358;56.328;43.992;2022-07-29T04:15:35;8.02;;;3.70;;
69246;SDS011;56358;56.328;43.992;2022-07-29T04:17:36;5.00;;;3.08;;
69246;SDS011;56358;56.328;43.992;2022-07-29T04:19:43;5.63;;;3.40;;
69246;SDS011;56358;56.328;43.992;2022-07-29T04:21:43;5.68;;;3.80;;
69246;SDS011;56358;56.328;43.992;2022-07-29T04:23:45;10.13;;;4.20;;
69246;SDS011;56358;56.328;43.992;2022-07-29T04:25:49;10.73;;;4.30;;
69246;SDS011;56358;56.328;43.992;2022-07-29T04:27:50;8.38;;;4.40;;
69246;SDS011;56358;56.328;43.992;2022-07-29T04:30:03;8.20;;;4.80;;
69246;SDS011;56358;56.328;43.992;2022-07-29T04:32:04;10.75;;;5.03;;
69246;SDS011;56358;56.328;43.992;2022-07-29T04:34:05;7.90;;;4.15;;
69246;SDS011;56358;56.328;43.992;2022-07-29T04:36:06;5.93;;;4.00;;
69246;SDS011;56358;56.328;43.992;2022-07-29T04:38:07;7.43;;;4.28;;
69246;SDS011;56358;56.328;43.992;2022-07-29T04:40:08;7.90;;;4.55;;
69246;SDS011;56358;56.328;43.992;2022-07-29T04:42:09;6.50;;;4.07;;
69246;SDS011;56358;56.328;43.992;2022-07-29T04:44:10;10.50;;;3.72;;
69246;SDS011;56358;56.328;43.992;2022-07-29T04:46:11;6.80;;;3.85;;
69246;SDS011;56358;56.328;43.992;2022-07-29T04:48:11;5.60;;;3.40;;
69246;SDS011;56358;56.328;43.992;2022-07-29T04:50:12;7.60;;;3.70;;
69246;SDS011;56358;56.328;43.992;2022-07-29T04:52:13;8.32;;;3.97;;
69246;SDS011;56358;56.328;43.992;2022-07-29T04:54:14;4.60;;;3.47;;
69246;SDS011;56358;56.328;43.992;2022-07-29T04:56:15;7.55;;;3.72;;
69246;SDS011;56358;56.328;43.992;2022-07-29T04:58:15;5.70;;;3.53;;
69246;SDS011;56358;56.328;43.992;2022-07-29T05:00:16;5.97;;;3.72;;
69246;SDS011;56358;56.328;43.992;2022-07-29T05:02:17;7.25;;;3.55;;
69246;SDS011;56358;56.328;43.992;2022-07-29T05:04:18;8.00;;;3.88;;
69246;SDS011;56358;56.328;43.992;2022-07-29T05:06:21;5.85;;;3.67;;
69246;SDS011;56358;56.328;43.992;2022-07-29T05:08:22;13.57;;;6.90;;
69246;SDS011;56358;56.328;43.992;2022-07-29T05:10:23;5.25;;;3.80;;
69246;SDS011;56358;56.328;43.992;2022-07-29T05:12:24;7.88;;;3.85;;
69246;SDS011;56358;56.328;43.992;2022-07-29T05:14:25;6.13;;;3.50;;
69246;SDS011;56358;56.328;43.992;2022-07-29T05:16:26;6.10;;;3.70;;
69246;SDS011;56358;56.328;43.992;2022-07-29T05:18:26;6.53;;;3.90;;
69246;SDS011;56358;56.328;43.992;2022-07-29T05:20:27;9.73;;;4.32;;
69246;SDS011;56358;56.328;43.992;2022-07-29T05:22:29;8.52;;;4.35;;
69246;SDS011;56358;56.328;43.992;2022-07-29T05:24:30;7.93;;;4.00;;
69246;SDS011;56358;56.328;43.992;2022-07-29T05:26:33;6.75;;;4.28;;
69246;SDS011;56358;56.328;43.992;2022-07-29T05:28:34;6.85;;;3.78;;
69246;SDS011;56358;56.328;43.992;2022-07-29T05:30:35;9.00;;;4.10;;
69246;SDS011;56358;56.328;43.992;2022-07-29T05:32:35;6.57;;;4.13;;
69246;SDS011;56358;56.328;43.992;2022-07-29T05:34:36;8.68;;;4.50;;
69246;SDS011;56358;56.328;43.992;2022-07-29T05:36:37;7.63;;;4.30;;
69246;SDS011;56358;56.328;43.992;2022-07-29T05:38:38;8.10;;;4.32;;
69246;SDS011;56358;56.328;43.992;2022-07-29T05:40:38;12.55;;;6.15;;
69246;SDS011;56358;56.328;43.992;2022-07-29T05:42:39;12.02;;;5.00;;
69246;SDS011;56358;56.328;43.992;2022-07-29T05:44:40;10.23;;;4.35;;
69246;SDS011;56358;56.328;43.992;2022-07-29T05:46:40;9.52;;;4.47;;
69246;SDS011;56358;56.328;43.992;2022-07-29T05:48:41;7.53;;;4.30;;
69246;SDS011;56358;56.328;43.992;2022-07-29T05:50:42;8.93;;;4.90;;
69246;SDS011;56358;56.328;43.992;2022-07-29T05:52:43;15.73;;;6.30;;
69246;SDS011;56358;56.328;43.992;2022-07-29T05:54:44;8.35;;;5.35;;
69246;SDS011;56358;56.328;43.992;2022-07-29T05:56:44;14.07;;;5.50;;
69246;SDS011;56358;56.328;43.992;2022-07-29T05:58:53;9.43;;;5.10;;
69246;SDS011;56358;56.328;43.992;2022-07-29T06:00:53;9.85;;;5.35;;
69246;SDS011;56358;56.328;43.992;2022-07-29T06:02:59;10.23;;;5.60;;
69246;SDS011;56358;56.328;43.992;2022-07-29T06:04:59;9.98;;;5.78;;
69246;SDS011;56358;56.328;43.992;2022-07-29T06:07:00;8.80;;;5.93;;
69246;SDS011;56358;56.328;43.992;2022-07-29T06:09:02;10.05;;;6.80;;
69246;SDS011;56358;56.328;43.992;2022-07-29T06:11:03;15.32;;;7.00;;
69246;SDS011;56358;56.328;43.992;2022-07-29T06:13:05;12.38;;;6.80;;
69246;SDS011;56358;56.328;43.992;2022-07-29T06:15:05;17.83;;;6.95;;
69246;SDS011;56358;56.328;43.992;2022-07-29T06:17:07;15.43;;;7.60;;
69246;SDS011;56358;56.328;43.992;2022-07-29T06:19:07;10.65;;;6.75;;
69246;SDS011;56358;56.328;43.992;2022-07-29T06:21:08;13.88;;;7.40;;
69246;SDS011;56358;56.328;43.992;2022-07-29T06:23:12;16.08;;;7.50;;
69246;SDS011;56358;56.328;43.992;2022-07-29T06:25:13;14.38;;;8.25;;
69246;SDS011;56358;56.328;43.992;2022-07-29T06:27:13;16.17;;;7.88;;
69246;SDS011;56358;56.328;43.992;2022-07-29T06:29:14;22.15;;;9.65;;
69246;SDS011;56358;56.328;43.992;2022-07-29T06:31:15;18.40;;;8.20;;
69246;SDS011;56358;56.328;43.992;2022-07-29T06:33:16;15.90;;;8.48;;
69246;SDS011;56358;56.328;43.992;2022-07-29T06:35:20;17.88;;;7.75;;
69246;SDS011;56358;56.328;43.992;2022-07-29T06:37:21;13.20;;;7.00;;
69246;SDS011;56358;56.328;43.992;2022-07-29T06:39:22;14.52;;;7.97;;
69246;SDS011;56358;56.328;43.992;2022-07-29T06:41:23;10.57;;;6.75;;
69246;SDS011;56358;56.328;43.992;2022-07-29T06:43:24;17.25;;;8.90;;
69246;SDS011;56358;56.328;43.992;2022-07-29T06:45:24;13.43;;;8.02;;
69246;SDS011;56358;56.328;43.992;2022-07-29T06:47:25;16.40;;;8.20;;
69246;SDS011;56358;56.328;43.992;2022-07-29T06:49:26;21.92;;;13.43;;
69246;SDS011;56358;56.328;43.992;2022-07-29T06:51:27;18.23;;;10.13;;
69246;SDS011;56358;56.328;43.992;2022-07-29T06:53:29;9.52;;;6.40;;
69246;SDS011;56358;56.328;43.992;2022-07-29T06:55:30;9.82;;;6.72;;
69246;SDS011;56358;56.328;43.992;2022-07-29T06:57:31;14.63;;;8.52;;
69246;SDS011;56358;56.328;43.992;2022-07-29T06:59:31;32.17;;;17.05;;
69246;SDS011;56358;56.328;43.992;2022-07-29T07:01:32;16.23;;;9.77;;
69246;SDS011;56358;56.328;43.992;2022-07-29T07:03:36;11.38;;;7.22;;
69246;SDS011;56358;56.328;43.992;2022-07-29T07:05:36;11.48;;;6.70;;
69246;SDS011;56358;56.328;43.992;2022-07-29T07:07:37;11.52;;;6.68;;
69246;SDS011;56358;56.328;43.992;2022-07-29T07:09:38;14.00;;;8.88;;
69246;SDS011;56358;56.328;43.992;2022-07-29T07:11:38;13.00;;;7.55;;
69246;SDS011;56358;56.328;43.992;2022-07-29T07:13:39;13.60;;;7.65;;
69246;SDS011;56358;56.328;43.992;2022-07-29T07:15:40;14.88;;;7.45;;
69246;SDS011;56358;56.328;43.992;2022-07-29T07:17:41;15.57;;;7.93;;
69246;SDS011;56358;56.328;43.992;2022-07-29T07:19:41;12.45;;;7.90;;
69246;SDS011;56358;56.328;43.992;2022-07-29T07:21:42;14.73;;;8.50;;
69246;SDS011;56358;56.328;43.992;2022-07-29T07:23:43;12.95;;;8.18;;
69246;SDS011;56358;56.328;43.992;2022-07-29T07:25:43;13.82;;;8.48;;
69246;SDS011;56358;56.328;43.992;2022-07-29T07:27:45;16.00;;;7.95;;
69246;SDS011;56358;56.328;43.992;2022-07-29T07:29:46;13.90;;;7.95;;
69246;SDS011;56358;56.328;43.992;2022-07-29T07:33:49;15.35;;;8.48;;
69246;SDS011;56358;56.328;43.992;2022-07-29T07:35:50;15.95;;;8.38;;
69246;SDS011;56358;56.328;43.992;2022-07-29T07:37:51;18.73;;;9.63;;
69246;SDS011;56358;56.328;43.992;2022-07-29T07:39:54;21.67;;;11.48;;
69246;SDS011;56358;56.328;43.992;2022-07-29T07:41:55;14.10;;;8.55;;
69246;SDS011;56358;56.328;43.992;2022-07-29T07:43:56;12.90;;;7.82;;
69246;SDS011;56358;56.328;43.992;2022-07-29T07:45:57;19.98;;;12.98;;
69246;SDS011;56358;56.328;43.992;2022-07-29T07:47:57;20.05;;;11.95;;
69246;SDS011;56358;56.328;43.992;2022-07-29T07:50:02;12.32;;;7.40;;
69246;SDS011;56358;56.328;43.992;2022-07-29T07:52:04;10.70;;;6.93;;
69246;SDS011;56358;56.328;43.992;2022-07-29T07:54:05;13.38;;;6.78;;
69246;SDS011;56358;56.328;43.992;2022-07-29T07:56:05;11.65;;;7.60;;
69246;SDS011;56358;56.328;43.992;2022-07-29T07:58:07;16.27;;;9.98;;
69246;SDS011;56358;56.328;43.992;2022-07-29T08:00:08;15.98;;;8.93;;
69246;SDS011;56358;56.328;43.992;2022-07-29T08:02:09;11.13;;;6.65;;
69246;SDS011;56358;56.328;43.992;2022-07-29T08:04:10;13.10;;;7.68;;
69246;SDS011;56358;56.328;43.992;2022-07-29T08:06:10;15.75;;;7.32;;
69246;SDS011;56358;56.328;43.992;2022-07-29T08:08:11;16.77;;;7.45;;
69246;SDS011;56358;56.328;43.992;2022-07-29T08:10:13;12.85;;;6.50;;
69246;SDS011;56358;56.328;43.992;2022-07-29T08:12:14;13.55;;;6.25;;
69246;SDS011;56358;56.328;43.992;2022-07-29T08:14:15;11.77;;;6.75;;
69246;SDS011;56358;56.328;43.992;2022-07-29T08:16:16;14.57;;;6.90;;
69246;SDS011;56358;56.328;43.992;2022-07-29T08:18:19;12.63;;;6.63;;
69246;SDS011;56358;56.328;43.992;2022-07-29T08:20:20;12.88;;;7.53;;
69246;SDS011;56358;56.328;43.992;2022-07-29T08:22:20;11.90;;;6.38;;
69246;SDS011;56358;56.328;43.992;2022-07-29T08:24:21;11.75;;;6.55;;
69246;SDS011;56358;56.328;43.992;2022-07-29T08:26:41;10.38;;;6.20;;
69246;SDS011;56358;56.328;43.992;2022-07-29T08:28:43;9.27;;;6.10;;
69246;SDS011;56358;56.328;43.992;2022-07-29T08:30:46;11.63;;;6.40;;
69246;SDS011;56358;56.328;43.992;2022-07-29T08:32:47;8.10;;;5.13;;
69246;SDS011;56358;56.328;43.992;2022-07-29T08:34:48;8.80;;;5.60;;
69246;SDS011;56358;56.328;43.992;2022-07-29T08:36:49;11.52;;;7.43;;
69246;SDS011;56358;56.328;43.992;2022-07-29T08:38:50;8.20;;;5.32;;
69246;SDS011;56358;56.328;43.992;2022-07-29T08:40:51;9.32;;;5.63;;
69246;SDS011;56358;56.328;43.992;2022-07-29T08:42:52;9.02;;;5.47;;
69246;SDS011;56358;56.328;43.992;2022-07-29T08:44:53;8.00;;;5.28;;
69246;SDS011;56358;56.328;43.992;2022-07-29T08:46:54;9.20;;;5.60;;
69246;SDS011;56358;56.328;43.992;2022-07-29T08:48:55;8.45;;;5.32;;
69246;SDS011;56358;56.328;43.992;2022-07-29T08:50:56;8.57;;;5.53;;
69246;SDS011;56358;56.328;43.992;2022-07-29T08:52:56;8.43;;;5.47;;
69246;SDS011;56358;56.328;43.992;2022-07-29T08:54:57;8.80;;;6.10;;
69246;SDS011;56358;56.328;43.992;2022-07-29T08:56:59;14.23;;;6.95;;
69246;SDS011;56358;56.328;43.992;2022-07-29T08:59:03;9.05;;;5.82;;
69246;SDS011;56358;56.328;43.992;2022-07-29T09:01:07;9.98;;;6.18;;
69246;SDS011;56358;56.328;43.992;2022-07-29T09:03:12;8.55;;;6.30;;
69246;SDS011;56358;56.328;43.992;2022-07-29T09:05:16;11.60;;;6.43;;
69246;SDS011;56358;56.328;43.992;2022-07-29T09:07:17;11.00;;;5.80;;
69246;SDS011;56358;56.328;43.992;2022-07-29T09:09:18;9.57;;;6.18;;
69246;SDS011;56358;56.328;43.992;2022-07-29T09:11:20;11.13;;;6.85;;
69246;SDS011;56358;56.328;43.992;2022-07-29T09:13:21;10.50;;;6.28;;
69246;SDS011;56358;56.328;43.992;2022-07-29T09:15:22;13.63;;;6.90;;
69246;SDS011;56358;56.328;43.992;2022-07-29T09:17:39;9.10;;;5.82;;
69246;SDS011;56358;56.328;43.992;2022-07-29T09:19:40;9.75;;;6.47;;
69246;SDS011;56358;56.328;43.992;2022-07-29T09:21:41;13.57;;;7.40;;
69246;SDS011;56358;56.328;43.992;2022-07-29T09:24:00;10.05;;;7.03;;
69246;SDS011;56358;56.328;43.992;2022-07-29T09:26:08;10.13;;;7.60;;
69246;SDS011;56358;56.328;43.992;2022-07-29T09:28:10;10.38;;;6.70;;
69246;SDS011;56358;56.328;43.992;2022-07-29T09:30:13;11.23;;;7.78;;
69246;SDS011;56358;56.328;43.992;2022-07-29T09:32:14;11.48;;;7.32;;
69246;SDS011;56358;56.328;43.992;2022-07-29T09:34:16;11.02;;;7.50;;
69246;SDS011;56358;56.328;43.992;2022-07-29T09:36:23;10.35;;;7.53;;
69246;SDS011;56358;56.328;43.992;2022-07-29T09:38:24;11.88;;;7.68;;
69246;SDS011;56358;56.328;43.992;2022-07-29T09:40:26;12.23;;;7.53;;
69246;SDS011;56358;56.328;43.992;2022-07-29T09:42:28;10.30;;;7.50;;
69246;SDS011;56358;56.328;43.992;2022-07-29T09:44:46;12.02;;;7.78;;
69246;SDS011;56358;56.328;43.992;2022-07-29T09:47:02;13.55;;;7.38;;
69246;SDS011;56358;56.328;43.992;2022-07-29T09:49:08;11.30;;;7.50;;
69246;SDS011;56358;56.328;43.992;2022-07-29T09:51:18;10.60;;;7.78;;
69246;SDS011;56358;56.328;43.992;2022-07-29T09:55:29;9.52;;;6.75;;
69246;SDS011;56358;56.328;43.992;2022-07-29T09:57:30;11.10;;;6.57;;
69246;SDS011;56358;56.328;43.992;2022-07-29T09:59:32;9.07;;;6.55;;
69246;SDS011;56358;56.328;43.992;2022-07-29T10:01:33;26.55;;;20.55;;
69246;SDS011;56358;56.328;43.992;2022-07-29T10:03:51;9.23;;;6.68;;
69246;SDS011;56358;56.328;43.992;2022-07-29T10:06:05;9.10;;;6.47;;
69246;SDS011;56358;56.328;43.992;2022-07-29T10:08:07;11.57;;;7.70;;
69246;SDS011;56358;56.328;43.992;2022-07-29T10:10:09;11.57;;;7.85;;
69246;SDS011;56358;56.328;43.992;2022-07-29T10:12:12;12.13;;;7.82;;
69246;SDS011;56358;56.328;43.992;2022-07-29T10:14:16;9.18;;;6.47;;
69246;SDS011;56358;56.328;43.992;2022-07-29T10:16:17;11.10;;;7.70;;
69246;SDS011;56358;56.328;43.992;2022-07-29T10:18:17;12.52;;;9.10;;
69246;SDS011;56358;56.328;43.992;2022-07-29T10:20:20;10.27;;;7.75;;
69246;SDS011;56358;56.328;43.992;2022-07-29T10:22:22;13.67;;;8.33;;
69246;SDS011;56358;56.328;43.992;2022-07-29T10:24:24;11.88;;;9.45;;
69246;SDS011;56358;56.328;43.992;2022-07-29T10:26:29;11.50;;;9.20;;
69246;SDS011;56358;56.328;43.992;2022-07-29T10:28:31;13.70;;;9.40;;
69246;SDS011;56358;56.328;43.992;2022-07-29T10:30:32;11.30;;;8.38;;
69246;SDS011;56358;56.328;43.992;2022-07-29T10:36:54;10.77;;;7.45;;
69246;SDS011;56358;56.328;43.992;2022-07-29T10:39:05;13.05;;;8.13;;
69246;SDS011;56358;56.328;43.992;2022-07-29T10:43:38;10.80;;;7.38;;
69246;SDS011;56358;56.328;43.992;2022-07-29T10:45:43;9.80;;;7.47;;
69246;SDS011;56358;56.328;43.992;2022-07-29T10:47:47;11.13;;;7.40;;
69246;SDS011;56358;56.328;43.992;2022-07-29T10:49:57;11.05;;;7.57;;
69246;SDS011;56358;56.328;43.992;2022-07-29T10:52:01;11.73;;;7.43;;
69246;SDS011;56358;56.328;43.992;2022-07-29T10:54:09;11.25;;;7.70;;
69246;SDS011;56358;56.328;43.992;2022-07-29T10:56:26;12.55;;;8.18;;
69246;SDS011;56358;56.328;43.992;2022-07-29T10:58:33;12.45;;;7.72;;
69246;SDS011;56358;56.328;43.992;2022-07-29T11:00:34;11.30;;;8.57;;
69246;SDS011;56358;56.328;43.992;2022-07-29T11:07:06;11.20;;;8.02;;
69246;SDS011;56358;56.328;43.992;2022-07-29T11:09:17;10.88;;;8.18;;
69246;SDS011;56358;56.328;43.992;2022-07-29T11:15:54;15.40;;;11.13;;
69246;SDS011;56358;56.328;43.992;2022-07-29T11:22:35;12.35;;;8.40;;
69246;SDS011;56358;56.328;43.992;2022-07-29T11:24:37;19.92;;;14.25;;
69246;SDS011;56358;56.328;43.992;2022-07-29T11:26:38;19.85;;;13.68;;
69246;SDS011;56358;56.328;43.992;2022-07-29T11:28:48;12.85;;;9.02;;
69246;SDS011;56358;56.328;43.992;2022-07-29T11:30:54;12.48;;;9.32;;
69246;SDS011;56358;56.328;43.992;2022-07-29T11:32:55;10.60;;;8.20;;
69246;SDS011;56358;56.328;43.992;2022-07-29T11:35:18;11.68;;;8.30;;
69246;SDS011;56358;56.328;43.992;2022-07-29T11:37:23;10.98;;;6.90;;
69246;SDS011;56358;56.328;43.992;2022-07-29T11:39:26;12.65;;;8.60;;
69246;SDS011;56358;56.328;43.992;2022-07-29T11:41:27;13.70;;;9.57;;
69246;SDS011;56358;56.328;43.992;2022-07-29T11:43:48;12.32;;;8.27;;
69246;SDS011;56358;56.328;43.992;2022-07-29T11:45:57;10.45;;;7.40;;
69246;SDS011;56358;56.328;43.992;2022-07-29T11:47:58;11.40;;;8.52;;
69246;SDS011;56358;56.328;43.992;2022-07-29T11:50:06;14.63;;;10.40;;
69246;SDS011;56358;56.328;43.992;2022-07-29T11:52:12;12.70;;;7.85;;
69246;SDS011;56358;56.328;43.992;2022-07-29T11:54:13;42.30;;;30.55;;
69246;SDS011;56358;56.328;43.992;2022-07-29T11:56:22;25.55;;;17.77;;
69246;SDS011;56358;56.328;43.992;2022-07-29T11:58:27;28.42;;;19.35;;
69246;SDS011;56358;56.328;43.992;2022-07-29T12:02:44;16.50;;;11.20;;
69246;SDS011;56358;56.328;43.992;2022-07-29T12:04:48;12.77;;;8.88;;
69246;SDS011;56358;56.328;43.992;2022-07-29T12:06:53;14.75;;;8.85;;
69246;SDS011;56358;56.328;43.992;2022-07-29T12:08:54;13.15;;;8.77;;
69246;SDS011;56358;56.328;43.992;2022-07-29T12:10:55;15.07;;;8.88;;
69246;SDS011;56358;56.328;43.992;2022-07-29T12:12:56;13.95;;;9.30;;
69246;SDS011;56358;56.328;43.992;2022-07-29T12:14:57;12.73;;;9.75;;
69246;SDS011;56358;56.328;43.992;2022-07-29T12:16:58;13.18;;;9.52;;
69246;SDS011;56358;56.328;43.992;2022-07-29T12:19:00;12.35;;;9.23;;
69246;SDS011;56358;56.328;43.992;2022-07-29T12:21:02;15.77;;;9.63;;
69246;SDS011;56358;56.328;43.992;2022-07-29T12:23:07;15.23;;;9.88;;
69246;SDS011;56358;56.328;43.992;2022-07-29T12:25:13;13.52;;;8.68;;
69246;SDS011;56358;56.328;43.992;2022-07-29T12:27:18;14.13;;;9.23;;
69246;SDS011;56358;56.328;43.992;2022-07-29T12:29:19;12.48;;;9.32;;
69246;SDS011;56358;56.328;43.992;2022-07-29T12:31:20;13.38;;;9.13;;
69246;SDS011;56358;56.328;43.992;2022-07-29T12:33:25;13.13;;;9.55;;
69246;SDS011;56358;56.328;43.992;2022-07-29T12:35:27;14.73;;;10.82;;
69246;SDS011;56358;56.328;43.992;2022-07-29T12:37:28;16.42;;;10.88;;
69246;SDS011;56358;56.328;43.992;2022-07-29T12:39:29;18.83;;;10.38;;
69246;SDS011;56358;56.328;43.992;2022-07-29T12:41:30;20.65;;;11.27;;
69246;SDS011;56358;56.328;43.992;2022-07-29T12:43:32;17.20;;;11.90;;
69246;SDS011;56358;56.328;43.992;2022-07-29T12:45:33;15.20;;;11.90;;